sensor_id;sensor_type;location;lat;lon;timestamp;temperature;humidity
8152;DHT22;4117;53.622;9.958;2023-12-28T00:00:22;6.80;1.00
8152;DHT22;4117;53.622;9.958;2023-12-28T00:02:49;6.80;1.00
8152;DHT22;4117;53.622;9.958;2023-12-28T00:05:18;6.80;1.00
8152;DHT22;4117;53.622;9.958;2023-12-28T00:07:45;6.80;1.00
8152;DHT22;4117;53.622;9.958;2023-12-28T00:10:12;6.90;1.00
8152;DHT22;4117;53.622;9.958;2023-12-28T00:12:39;6.80;1.00
8152;DHT22;4117;53.622;9.958;2023-12-28T00:15:07;6.80;1.00
8152;DHT22;4117;53.622;9.958;2023-12-28T00:17:34;6.80;1.00
8152;DHT22;4117;53.622;9.958;2023-12-28T00:20:01;6.80;1.00
8152;DHT22;4117;53.622;9.958;2023-12-28T00:22:30;6.80;1.00
8152;DHT22;4117;53.622;9.958;2023-12-28T00:24:57;6.80;1.00
8152;DHT22;4117;53.622;9.958;2023-12-28T00:27:25;6.80;1.00
8152;DHT22;4117;53.622;9.958;2023-12-28T00:29:51;6.80;1.00
8152;DHT22;4117;53.622;9.958;2023-12-28T00:32:18;6.80;1.00
8152;DHT22;4117;53.622;9.958;2023-12-28T00:34:45;6.80;1.00
8152;DHT22;4117;53.622;9.958;2023-12-28T00:37:12;6.80;1.00
8152;DHT22;4117;53.622;9.958;2023-12-28T00:39:40;6.80;1.00
8152;DHT22;4117;53.622;9.958;2023-12-28T00:42:07;6.80;1.00
8152;DHT22;4117;53.622;9.958;2023-12-28T00:44:35;6.70;1.00
8152;DHT22;4117;53.622;9.958;2023-12-28T00:47:02;6.70;1.00
8152;DHT22;4117;53.622;9.958;2023-12-28T00:49:29;6.70;1.00
8152;DHT22;4117;53.622;9.958;2023-12-28T00:51:56;6.70;1.00
8152;DHT22;4117;53.622;9.958;2023-12-28T00:54:23;6.70;1.00
8152;DHT22;4117;53.622;9.958;2023-12-28T00:56:52;6.70;1.00
8152;DHT22;4117;53.622;9.958;2023-12-28T00:59:19;6.70;1.00
8152;DHT22;4117;53.622;9.958;2023-12-28T01:01:46;6.80;1.00
8152;DHT22;4117;53.622;9.958;2023-12-28T01:04:13;6.70;1.00
8152;DHT22;4117;53.622;9.958;2023-12-28T01:06:40;6.70;1.00
8152;DHT22;4117;53.622;9.958;2023-12-28T01:09:07;6.70;1.00
8152;DHT22;4117;53.622;9.958;2023-12-28T01:11:34;6.70;1.00
8152;DHT22;4117;53.622;9.958;2023-12-28T01:14:03;6.80;1.00
8152;DHT22;4117;53.622;9.958;2023-12-28T01:16:30;6.80;1.00
8152;DHT22;4117;53.622;9.958;2023-12-28T01:18:57;6.80;1.00
8152;DHT22;4117;53.622;9.958;2023-12-28T01:21:24;6.80;1.00
8152;DHT22;4117;53.622;9.958;2023-12-28T01:23:51;6.80;1.00
8152;DHT22;4117;53.622;9.958;2023-12-28T01:26:19;6.80;1.00
8152;DHT22;4117;53.622;9.958;2023-12-28T01:28:46;6.80;1.00
8152;DHT22;4117;53.622;9.958;2023-12-28T01:31:15;6.80;1.00
8152;DHT22;4117;53.622;9.958;2023-12-28T01:33:42;6.90;1.00
8152;DHT22;4117;53.622;9.958;2023-12-28T01:36:19;6.90;1.00
8152;DHT22;4117;53.622;9.958;2023-12-28T01:38:46;6.90;1.00
8152;DHT22;4117;53.622;9.958;2023-12-28T01:41:16;6.90;1.00
8152;DHT22;4117;53.622;9.958;2023-12-28T01:43:43;6.90;1.00
8152;DHT22;4117;53.622;9.958;2023-12-28T01:46:16;6.90;1.00
8152;DHT22;4117;53.622;9.958;2023-12-28T01:48:44;6.90;1.00
8152;DHT22;4117;53.622;9.958;2023-12-28T01:51:13;7.00;1.00
8152;DHT22;4117;53.622;9.958;2023-12-28T01:53:41;7.00;1.00
8152;DHT22;4117;53.622;9.958;2023-12-28T01:56:08;7.00;1.00
8152;DHT22;4117;53.622;9.958;2023-12-28T01:58:36;7.00;1.00
8152;DHT22;4117;53.622;9.958;2023-12-28T02:01:04;7.10;1.00
8152;DHT22;4117;53.622;9.958;2023-12-28T02:03:33;7.10;1.00
8152;DHT22;4117;53.622;9.958;2023-12-28T02:06:01;7.20;1.00
8152;DHT22;4117;53.622;9.958;2023-12-28T02:08:28;7.20;1.00
8152;DHT22;4117;53.622;9.958;2023-12-28T02:10:54;7.20;1.00
8152;DHT22;4117;53.622;9.958;2023-12-28T02:13:22;7.20;1.00
8152;DHT22;4117;53.622;9.958;2023-12-28T02:15:54;7.20;1.00
8152;DHT22;4117;53.622;9.958;2023-12-28T02:18:31;7.20;1.00
8152;DHT22;4117;53.622;9.958;2023-12-28T02:21:02;7.20;1.00
8152;DHT22;4117;53.622;9.958;2023-12-28T02:23:29;7.20;1.00
8152;DHT22;4117;53.622;9.958;2023-12-28T02:25:58;7.30;1.00
8152;DHT22;4117;53.622;9.958;2023-12-28T02:28:25;7.40;1.00
8152;DHT22;4117;53.622;9.958;2023-12-28T02:30:52;7.40;1.00
8152;DHT22;4117;53.622;9.958;2023-12-28T02:33:26;7.30;1.00
8152;DHT22;4117;53.622;9.958;2023-12-28T02:35:58;7.40;1.00
8152;DHT22;4117;53.622;9.958;2023-12-28T02:38:29;7.30;1.00
8152;DHT22;4117;53.622;9.958;2023-12-28T02:40:58;7.30;1.00
8152;DHT22;4117;53.622;9.958;2023-12-28T02:43:25;7.40;1.00
8152;DHT22;4117;53.622;9.958;2023-12-28T02:45:52;7.30;1.00
8152;DHT22;4117;53.622;9.958;2023-12-28T02:48:19;7.30;1.00
8152;DHT22;4117;53.622;9.958;2023-12-28T02:50:46;7.30;1.00
8152;DHT22;4117;53.622;9.958;2023-12-28T02:53:13;7.40;1.00
8152;DHT22;4117;53.622;9.958;2023-12-28T02:55:40;7.30;1.00
8152;DHT22;4117;53.622;9.958;2023-12-28T02:58:08;7.30;1.00
8152;DHT22;4117;53.622;9.958;2023-12-28T03:00:35;7.30;1.00
8152;DHT22;4117;53.622;9.958;2023-12-28T03:03:03;7.30;1.00
8152;DHT22;4117;53.622;9.958;2023-12-28T03:05:30;7.30;1.00
8152;DHT22;4117;53.622;9.958;2023-12-28T03:07:57;7.40;1.00
8152;DHT22;4117;53.622;9.958;2023-12-28T03:10:24;7.40;1.00
8152;DHT22;4117;53.622;9.958;2023-12-28T03:12:50;7.40;1.00
8152;DHT22;4117;53.622;9.958;2023-12-28T03:15:19;7.30;1.00
8152;DHT22;4117;53.622;9.958;2023-12-28T03:17:46;7.30;1.00
8152;DHT22;4117;53.622;9.958;2023-12-28T03:20:13;7.30;1.00
8152;DHT22;4117;53.622;9.958;2023-12-28T03:22:39;7.30;1.00
8152;DHT22;4117;53.622;9.958;2023-12-28T03:25:07;7.40;1.00
8152;DHT22;4117;53.622;9.958;2023-12-28T03:27:34;7.40;1.00
8152;DHT22;4117;53.622;9.958;2023-12-28T03:30:01;7.40;1.00
8152;DHT22;4117;53.622;9.958;2023-12-28T03:32:29;7.40;1.00
8152;DHT22;4117;53.622;9.958;2023-12-28T03:34:56;7.40;1.00
8152;DHT22;4117;53.622;9.958;2023-12-28T03:37:23;7.40;1.00
8152;DHT22;4117;53.622;9.958;2023-12-28T03:39:50;7.40;1.00
8152;DHT22;4117;53.622;9.958;2023-12-28T03:42:17;7.30;1.00
8152;DHT22;4117;53.622;9.958;2023-12-28T03:44:44;7.30;1.00
8152;DHT22;4117;53.622;9.958;2023-12-28T03:47:11;7.30;1.00
8152;DHT22;4117;53.622;9.958;2023-12-28T03:49:39;7.30;1.00
8152;DHT22;4117;53.622;9.958;2023-12-28T03:52:06;7.30;1.00
8152;DHT22;4117;53.622;9.958;2023-12-28T03:54:33;7.30;1.00
8152;DHT22;4117;53.622;9.958;2023-12-28T03:57:00;7.30;1.00
8152;DHT22;4117;53.622;9.958;2023-12-28T03:59:27;7.30;1.00
8152;DHT22;4117;53.622;9.958;2023-12-28T04:01:54;7.30;1.00
8152;DHT22;4117;53.622;9.958;2023-12-28T04:04:21;7.30;1.00
8152;DHT22;4117;53.622;9.958;2023-12-28T04:06:49;7.30;1.00
8152;DHT22;4117;53.622;9.958;2023-12-28T04:09:16;7.30;1.00
8152;DHT22;4117;53.622;9.958;2023-12-28T04:11:43;7.30;1.00
8152;DHT22;4117;53.622;9.958;2023-12-28T04:14:10;7.30;1.00
8152;DHT22;4117;53.622;9.958;2023-12-28T04:16:37;7.30;1.00
8152;DHT22;4117;53.622;9.958;2023-12-28T04:19:04;7.30;1.00
8152;DHT22;4117;53.622;9.958;2023-12-28T04:21:31;7.20;1.00
8152;DHT22;4117;53.622;9.958;2023-12-28T04:23:59;7.20;1.00
8152;DHT22;4117;53.622;9.958;2023-12-28T04:26:27;7.20;1.00
8152;DHT22;4117;53.622;9.958;2023-12-28T04:28:55;7.30;1.00
8152;DHT22;4117;53.622;9.958;2023-12-28T04:31:23;7.20;1.00
8152;DHT22;4117;53.622;9.958;2023-12-28T04:33:50;7.20;1.00
8152;DHT22;4117;53.622;9.958;2023-12-28T04:36:17;7.20;1.00
8152;DHT22;4117;53.622;9.958;2023-12-28T04:38:43;7.20;1.00
8152;DHT22;4117;53.622;9.958;2023-12-28T04:41:12;7.20;1.00
8152;DHT22;4117;53.622;9.958;2023-12-28T04:43:39;7.20;1.00
8152;DHT22;4117;53.622;9.958;2023-12-28T04:46:06;7.20;1.00
8152;DHT22;4117;53.622;9.958;2023-12-28T04:48:33;7.20;1.00
8152;DHT22;4117;53.622;9.958;2023-12-28T04:51:02;7.20;1.00
8152;DHT22;4117;53.622;9.958;2023-12-28T04:53:29;7.10;1.00
8152;DHT22;4117;53.622;9.958;2023-12-28T04:55:56;7.10;1.00
8152;DHT22;4117;53.622;9.958;2023-12-28T04:58:24;7.10;1.00
8152;DHT22;4117;53.622;9.958;2023-12-28T05:00:51;7.20;1.00
8152;DHT22;4117;53.622;9.958;2023-12-28T05:03:18;7.20;1.00
8152;DHT22;4117;53.622;9.958;2023-12-28T05:05:45;7.20;1.00
8152;DHT22;4117;53.622;9.958;2023-12-28T05:08:12;7.20;1.00
8152;DHT22;4117;53.622;9.958;2023-12-28T05:10:39;7.20;1.00
8152;DHT22;4117;53.622;9.958;2023-12-28T05:13:06;7.20;1.00
8152;DHT22;4117;53.622;9.958;2023-12-28T05:15:34;7.20;1.00
8152;DHT22;4117;53.622;9.958;2023-12-28T05:18:01;7.20;1.00
8152;DHT22;4117;53.622;9.958;2023-12-28T05:20:27;7.20;1.00
8152;DHT22;4117;53.622;9.958;2023-12-28T05:22:55;7.20;1.00
8152;DHT22;4117;53.622;9.958;2023-12-28T05:25:22;7.20;1.00
8152;DHT22;4117;53.622;9.958;2023-12-28T05:27:49;7.20;1.00
8152;DHT22;4117;53.622;9.958;2023-12-28T05:30:15;7.20;1.00
8152;DHT22;4117;53.622;9.958;2023-12-28T05:32:44;7.20;1.00
8152;DHT22;4117;53.622;9.958;2023-12-28T05:35:11;7.20;1.00
8152;DHT22;4117;53.622;9.958;2023-12-28T05:37:38;7.10;1.00
8152;DHT22;4117;53.622;9.958;2023-12-28T05:40:05;7.20;1.00
8152;DHT22;4117;53.622;9.958;2023-12-28T05:42:35;7.20;1.00
8152;DHT22;4117;53.622;9.958;2023-12-28T05:45:03;7.20;1.00
8152;DHT22;4117;53.622;9.958;2023-12-28T05:47:30;7.20;1.00
8152;DHT22;4117;53.622;9.958;2023-12-28T05:49:58;7.20;1.00
8152;DHT22;4117;53.622;9.958;2023-12-28T05:52:25;7.20;1.00
8152;DHT22;4117;53.622;9.958;2023-12-28T05:54:52;7.30;1.00
8152;DHT22;4117;53.622;9.958;2023-12-28T05:57:20;7.30;1.00
8152;DHT22;4117;53.622;9.958;2023-12-28T05:59:47;7.30;1.00
8152;DHT22;4117;53.622;9.958;2023-12-28T06:02:14;7.30;1.00
8152;DHT22;4117;53.622;9.958;2023-12-28T06:04:41;7.30;1.00
8152;DHT22;4117;53.622;9.958;2023-12-28T06:07:10;7.30;1.00
8152;DHT22;4117;53.622;9.958;2023-12-28T06:09:36;7.30;1.00
8152;DHT22;4117;53.622;9.958;2023-12-28T06:12:04;7.40;1.00
8152;DHT22;4117;53.622;9.958;2023-12-28T06:14:31;7.40;1.00
8152;DHT22;4117;53.622;9.958;2023-12-28T06:16:58;7.40;1.00
8152;DHT22;4117;53.622;9.958;2023-12-28T06:19:25;7.40;1.00
8152;DHT22;4117;53.622;9.958;2023-12-28T06:21:52;7.50;1.00
8152;DHT22;4117;53.622;9.958;2023-12-28T06:24:21;7.50;1.00
8152;DHT22;4117;53.622;9.958;2023-12-28T06:26:47;7.60;1.00
8152;DHT22;4117;53.622;9.958;2023-12-28T06:29:15;7.70;1.00
8152;DHT22;4117;53.622;9.958;2023-12-28T06:31:42;7.70;1.00
8152;DHT22;4117;53.622;9.958;2023-12-28T06:34:08;7.70;1.00
8152;DHT22;4117;53.622;9.958;2023-12-28T06:36:35;7.80;1.00
8152;DHT22;4117;53.622;9.958;2023-12-28T06:39:02;7.90;1.00
8152;DHT22;4117;53.622;9.958;2023-12-28T06:41:31;7.90;1.00
8152;DHT22;4117;53.622;9.958;2023-12-28T06:43:57;7.90;1.00
8152;DHT22;4117;53.622;9.958;2023-12-28T06:46:24;7.90;1.00
8152;DHT22;4117;53.622;9.958;2023-12-28T06:48:51;8.00;1.00
8152;DHT22;4117;53.622;9.958;2023-12-28T06:51:18;8.10;1.00
8152;DHT22;4117;53.622;9.958;2023-12-28T06:53:46;8.10;1.00
8152;DHT22;4117;53.622;9.958;2023-12-28T06:56:14;8.10;1.00
8152;DHT22;4117;53.622;9.958;2023-12-28T06:58:42;8.10;1.00
8152;DHT22;4117;53.622;9.958;2023-12-28T07:01:09;8.10;1.00
8152;DHT22;4117;53.622;9.958;2023-12-28T07:03:37;8.10;1.00
8152;DHT22;4117;53.622;9.958;2023-12-28T07:06:04;8.10;1.00
8152;DHT22;4117;53.622;9.958;2023-12-28T07:08:31;8.20;1.00
8152;DHT22;4117;53.622;9.958;2023-12-28T07:10:58;8.20;1.00
8152;DHT22;4117;53.622;9.958;2023-12-28T07:13:25;8.20;1.00
8152;DHT22;4117;53.622;9.958;2023-12-28T07:15:53;8.20;1.00
8152;DHT22;4117;53.622;9.958;2023-12-28T07:18:20;8.20;1.00
8152;DHT22;4117;53.622;9.958;2023-12-28T07:20:47;8.20;1.00
8152;DHT22;4117;53.622;9.958;2023-12-28T07:23:15;8.20;1.00
8152;DHT22;4117;53.622;9.958;2023-12-28T07:25:42;8.20;1.00
8152;DHT22;4117;53.622;9.958;2023-12-28T07:28:09;8.30;1.00
8152;DHT22;4117;53.622;9.958;2023-12-28T07:30:37;8.30;1.00
8152;DHT22;4117;53.622;9.958;2023-12-28T07:33:05;8.30;1.00
8152;DHT22;4117;53.622;9.958;2023-12-28T07:35:32;8.30;1.00
8152;DHT22;4117;53.622;9.958;2023-12-28T07:37:59;8.30;1.00
8152;DHT22;4117;53.622;9.958;2023-12-28T07:40:27;8.30;1.00
8152;DHT22;4117;53.622;9.958;2023-12-28T07:42:54;8.30;1.00
8152;DHT22;4117;53.622;9.958;2023-12-28T07:45:22;8.30;1.00
8152;DHT22;4117;53.622;9.958;2023-12-28T07:47:50;8.30;1.00
8152;DHT22;4117;53.622;9.958;2023-12-28T07:50:19;8.30;1.00
8152;DHT22;4117;53.622;9.958;2023-12-28T07:52:46;8.30;1.00
8152;DHT22;4117;53.622;9.958;2023-12-28T07:55:14;8.30;1.00
8152;DHT22;4117;53.622;9.958;2023-12-28T07:57:41;8.30;1.00
8152;DHT22;4117;53.622;9.958;2023-12-28T08:00:08;8.30;1.00
8152;DHT22;4117;53.622;9.958;2023-12-28T08:02:36;8.30;1.00
8152;DHT22;4117;53.622;9.958;2023-12-28T08:05:03;8.30;1.00
8152;DHT22;4117;53.622;9.958;2023-12-28T08:07:32;8.30;1.00
8152;DHT22;4117;53.622;9.958;2023-12-28T08:09:59;8.40;1.00
8152;DHT22;4117;53.622;9.958;2023-12-28T08:12:26;8.50;1.00
8152;DHT22;4117;53.622;9.958;2023-12-28T08:14:54;8.50;1.00
8152;DHT22;4117;53.622;9.958;2023-12-28T08:17:21;8.50;1.00
8152;DHT22;4117;53.622;9.958;2023-12-28T08:19:48;8.60;1.00
8152;DHT22;4117;53.622;9.958;2023-12-28T08:22:15;8.60;1.00
8152;DHT22;4117;53.622;9.958;2023-12-28T08:24:44;8.60;1.00
8152;DHT22;4117;53.622;9.958;2023-12-28T08:27:11;8.60;1.00
8152;DHT22;4117;53.622;9.958;2023-12-28T08:29:39;8.60;1.00
8152;DHT22;4117;53.622;9.958;2023-12-28T08:32:07;8.60;1.00
8152;DHT22;4117;53.622;9.958;2023-12-28T08:34:34;8.70;1.00
8152;DHT22;4117;53.622;9.958;2023-12-28T08:37:01;8.70;1.00
8152;DHT22;4117;53.622;9.958;2023-12-28T08:39:28;8.70;1.00
8152;DHT22;4117;53.622;9.958;2023-12-28T08:41:57;8.80;1.00
8152;DHT22;4117;53.622;9.958;2023-12-28T08:44:24;8.80;1.00
8152;DHT22;4117;53.622;9.958;2023-12-28T08:46:51;8.90;1.00
8152;DHT22;4117;53.622;9.958;2023-12-28T08:49:17;8.90;1.00
8152;DHT22;4117;53.622;9.958;2023-12-28T08:51:44;8.90;1.00
8152;DHT22;4117;53.622;9.958;2023-12-28T08:54:11;8.90;1.00
8152;DHT22;4117;53.622;9.958;2023-12-28T08:56:38;8.90;1.00
8152;DHT22;4117;53.622;9.958;2023-12-28T08:59:06;8.90;1.00
8152;DHT22;4117;53.622;9.958;2023-12-28T09:01:33;9.00;1.00
8152;DHT22;4117;53.622;9.958;2023-12-28T09:04:00;9.00;1.00
8152;DHT22;4117;53.622;9.958;2023-12-28T09:06:27;9.00;1.00
8152;DHT22;4117;53.622;9.958;2023-12-28T09:08:54;9.00;1.00
8152;DHT22;4117;53.622;9.958;2023-12-28T09:11:22;9.00;1.00
8152;DHT22;4117;53.622;9.958;2023-12-28T09:13:49;9.10;1.00
8152;DHT22;4117;53.622;9.958;2023-12-28T09:16:17;9.10;1.00
8152;DHT22;4117;53.622;9.958;2023-12-28T09:18:44;9.10;1.00
8152;DHT22;4117;53.622;9.958;2023-12-28T09:21:11;9.20;1.00
8152;DHT22;4117;53.622;9.958;2023-12-28T09:23:38;9.20;1.00
8152;DHT22;4117;53.622;9.958;2023-12-28T09:26:06;9.20;1.00
8152;DHT22;4117;53.622;9.958;2023-12-28T09:28:34;9.20;1.00
8152;DHT22;4117;53.622;9.958;2023-12-28T09:31:01;9.30;1.00
8152;DHT22;4117;53.622;9.958;2023-12-28T09:33:30;9.30;1.00
8152;DHT22;4117;53.622;9.958;2023-12-28T09:35:57;9.30;1.00
8152;DHT22;4117;53.622;9.958;2023-12-28T09:38:25;9.30;1.00
8152;DHT22;4117;53.622;9.958;2023-12-28T09:40:53;9.30;1.00
8152;DHT22;4117;53.622;9.958;2023-12-28T09:43:23;9.30;1.00
8152;DHT22;4117;53.622;9.958;2023-12-28T09:45:51;9.40;1.00
8152;DHT22;4117;53.622;9.958;2023-12-28T09:48:19;9.40;1.00
8152;DHT22;4117;53.622;9.958;2023-12-28T09:50:49;9.40;1.00
8152;DHT22;4117;53.622;9.958;2023-12-28T09:53:16;9.50;1.00
8152;DHT22;4117;53.622;9.958;2023-12-28T09:55:44;9.50;1.00
8152;DHT22;4117;53.622;9.958;2023-12-28T09:58:13;9.50;1.00
8152;DHT22;4117;53.622;9.958;2023-12-28T10:00:44;9.60;1.00
8152;DHT22;4117;53.622;9.958;2023-12-28T10:03:12;9.50;1.00
8152;DHT22;4117;53.622;9.958;2023-12-28T10:05:41;9.50;1.00
8152;DHT22;4117;53.622;9.958;2023-12-28T10:08:11;9.50;1.00
8152;DHT22;4117;53.622;9.958;2023-12-28T10:10:38;9.60;1.00
8152;DHT22;4117;53.622;9.958;2023-12-28T10:13:06;9.60;1.00
8152;DHT22;4117;53.622;9.958;2023-12-28T10:15:34;9.50;1.00
8152;DHT22;4117;53.622;9.958;2023-12-28T10:18:01;9.60;1.00
8152;DHT22;4117;53.622;9.958;2023-12-28T10:20:28;9.60;1.00
8152;DHT22;4117;53.622;9.958;2023-12-28T10:22:55;9.60;1.00
8152;DHT22;4117;53.622;9.958;2023-12-28T10:25:24;9.60;1.00
8152;DHT22;4117;53.622;9.958;2023-12-28T10:27:52;9.70;1.00
8152;DHT22;4117;53.622;9.958;2023-12-28T10:30:20;9.70;1.00
8152;DHT22;4117;53.622;9.958;2023-12-28T10:32:47;9.70;1.00
8152;DHT22;4117;53.622;9.958;2023-12-28T10:35:15;9.70;1.00
8152;DHT22;4117;53.622;9.958;2023-12-28T10:37:42;9.70;1.00
8152;DHT22;4117;53.622;9.958;2023-12-28T10:40:12;9.80;1.00
8152;DHT22;4117;53.622;9.958;2023-12-28T10:42:49;9.80;1.00
8152;DHT22;4117;53.622;9.958;2023-12-28T10:45:19;9.80;1.00
8152;DHT22;4117;53.622;9.958;2023-12-28T10:47:54;9.80;1.00
8152;DHT22;4117;53.622;9.958;2023-12-28T10:50:25;9.80;1.00
8152;DHT22;4117;53.622;9.958;2023-12-28T10:52:59;9.80;1.00
8152;DHT22;4117;53.622;9.958;2023-12-28T10:55:34;9.90;1.00
8152;DHT22;4117;53.622;9.958;2023-12-28T10:58:11;9.90;1.00
8152;DHT22;4117;53.622;9.958;2023-12-28T11:00:45;9.90;1.00
8152;DHT22;4117;53.622;9.958;2023-12-28T11:03:18;10.00;1.00
8152;DHT22;4117;53.622;9.958;2023-12-28T11:05:48;10.00;1.00
8152;DHT22;4117;53.622;9.958;2023-12-28T11:08:16;9.90;1.00
8152;DHT22;4117;53.622;9.958;2023-12-28T11:10:47;9.90;1.00
8152;DHT22;4117;53.622;9.958;2023-12-28T11:13:20;10.00;1.00
8152;DHT22;4117;53.622;9.958;2023-12-28T11:15:47;10.00;1.00
8152;DHT22;4117;53.622;9.958;2023-12-28T11:18:16;10.00;1.00
8152;DHT22;4117;53.622;9.958;2023-12-28T11:20:44;10.00;1.00
8152;DHT22;4117;53.622;9.958;2023-12-28T11:23:12;10.00;1.00
8152;DHT22;4117;53.622;9.958;2023-12-28T11:25:39;10.10;1.00
8152;DHT22;4117;53.622;9.958;2023-12-28T11:28:10;10.10;1.00
8152;DHT22;4117;53.622;9.958;2023-12-28T11:30:39;10.00;1.00
8152;DHT22;4117;53.622;9.958;2023-12-28T11:33:08;10.00;1.00
8152;DHT22;4117;53.622;9.958;2023-12-28T11:35:37;10.00;1.00
8152;DHT22;4117;53.622;9.958;2023-12-28T11:38:08;10.00;1.00
8152;DHT22;4117;53.622;9.958;2023-12-28T11:40:40;10.00;1.00
8152;DHT22;4117;53.622;9.958;2023-12-28T11:43:17;10.00;1.00
8152;DHT22;4117;53.622;9.958;2023-12-28T11:45:50;10.00;1.00
8152;DHT22;4117;53.622;9.958;2023-12-28T11:48:24;10.10;1.00
8152;DHT22;4117;53.622;9.958;2023-12-28T11:50:54;10.00;1.00
8152;DHT22;4117;53.622;9.958;2023-12-28T11:53:22;10.10;1.00
8152;DHT22;4117;53.622;9.958;2023-12-28T11:55:49;10.10;1.00
8152;DHT22;4117;53.622;9.958;2023-12-28T11:58:16;10.10;1.00
8152;DHT22;4117;53.622;9.958;2023-12-28T12:00:43;10.10;1.00
8152;DHT22;4117;53.622;9.958;2023-12-28T12:03:12;10.10;1.00
8152;DHT22;4117;53.622;9.958;2023-12-28T12:05:39;10.10;1.00
8152;DHT22;4117;53.622;9.958;2023-12-28T12:08:06;10.10;1.00
8152;DHT22;4117;53.622;9.958;2023-12-28T12:10:35;10.20;1.00
8152;DHT22;4117;53.622;9.958;2023-12-28T12:13:03;10.20;1.00
8152;DHT22;4117;53.622;9.958;2023-12-28T12:15:30;10.20;1.00
8152;DHT22;4117;53.622;9.958;2023-12-28T12:17:57;10.30;1.00
8152;DHT22;4117;53.622;9.958;2023-12-28T12:20:26;10.20;1.00
8152;DHT22;4117;53.622;9.958;2023-12-28T12:22:57;10.20;1.00
8152;DHT22;4117;53.622;9.958;2023-12-28T12:25:24;10.20;1.00
8152;DHT22;4117;53.622;9.958;2023-12-28T12:27:52;10.20;1.00
8152;DHT22;4117;53.622;9.958;2023-12-28T12:30:19;10.20;1.00
8152;DHT22;4117;53.622;9.958;2023-12-28T12:32:48;10.20;1.00
8152;DHT22;4117;53.622;9.958;2023-12-28T12:35:15;10.20;1.00
8152;DHT22;4117;53.622;9.958;2023-12-28T12:37:45;10.20;1.00
8152;DHT22;4117;53.622;9.958;2023-12-28T12:40:12;10.20;1.00
8152;DHT22;4117;53.622;9.958;2023-12-28T12:42:41;10.30;1.00
8152;DHT22;4117;53.622;9.958;2023-12-28T12:45:09;10.30;1.00
8152;DHT22;4117;53.622;9.958;2023-12-28T12:47:36;10.30;1.00
8152;DHT22;4117;53.622;9.958;2023-12-28T12:50:03;10.30;1.00
8152;DHT22;4117;53.622;9.958;2023-12-28T12:52:31;10.30;1.00
8152;DHT22;4117;53.622;9.958;2023-12-28T12:54:59;10.20;1.00
8152;DHT22;4117;53.622;9.958;2023-12-28T12:57:26;10.30;1.00
8152;DHT22;4117;53.622;9.958;2023-12-28T12:59:53;10.20;1.00
8152;DHT22;4117;53.622;9.958;2023-12-28T13:02:22;10.20;1.00
8152;DHT22;4117;53.622;9.958;2023-12-28T13:04:51;10.30;1.00
8152;DHT22;4117;53.622;9.958;2023-12-28T13:07:19;10.30;1.00
8152;DHT22;4117;53.622;9.958;2023-12-28T13:09:46;10.30;1.00
8152;DHT22;4117;53.622;9.958;2023-12-28T13:12:14;10.30;1.00
8152;DHT22;4117;53.622;9.958;2023-12-28T13:14:41;10.30;1.00
8152;DHT22;4117;53.622;9.958;2023-12-28T13:17:10;10.30;1.00
8152;DHT22;4117;53.622;9.958;2023-12-28T13:19:37;10.30;1.00
8152;DHT22;4117;53.622;9.958;2023-12-28T13:22:04;10.30;1.00
8152;DHT22;4117;53.622;9.958;2023-12-28T13:24:31;10.30;1.00
8152;DHT22;4117;53.622;9.958;2023-12-28T13:26:58;10.40;1.00
8152;DHT22;4117;53.622;9.958;2023-12-28T13:29:27;10.40;1.00
8152;DHT22;4117;53.622;9.958;2023-12-28T13:31:55;10.30;1.00
8152;DHT22;4117;53.622;9.958;2023-12-28T13:34:23;10.30;1.00
8152;DHT22;4117;53.622;9.958;2023-12-28T13:36:50;10.30;1.00
8152;DHT22;4117;53.622;9.958;2023-12-28T13:39:18;10.30;1.00
8152;DHT22;4117;53.622;9.958;2023-12-28T13:41:46;10.30;1.00
8152;DHT22;4117;53.622;9.958;2023-12-28T13:44:12;10.40;1.00
8152;DHT22;4117;53.622;9.958;2023-12-28T13:46:41;10.30;1.00
8152;DHT22;4117;53.622;9.958;2023-12-28T13:49:08;10.30;1.00
8152;DHT22;4117;53.622;9.958;2023-12-28T13:51:35;10.30;1.00
8152;DHT22;4117;53.622;9.958;2023-12-28T13:54:02;10.30;1.00
8152;DHT22;4117;53.622;9.958;2023-12-28T13:56:29;10.30;1.00
8152;DHT22;4117;53.622;9.958;2023-12-28T13:58:55;10.30;1.00
8152;DHT22;4117;53.622;9.958;2023-12-28T14:01:22;10.20;1.00
8152;DHT22;4117;53.622;9.958;2023-12-28T14:03:51;10.20;1.00
8152;DHT22;4117;53.622;9.958;2023-12-28T14:06:18;10.20;1.00
8152;DHT22;4117;53.622;9.958;2023-12-28T14:08:45;10.20;1.00
8152;DHT22;4117;53.622;9.958;2023-12-28T14:11:12;10.10;1.00
8152;DHT22;4117;53.622;9.958;2023-12-28T14:13:39;10.10;1.00
8152;DHT22;4117;53.622;9.958;2023-12-28T14:16:06;10.00;1.00
8152;DHT22;4117;53.622;9.958;2023-12-28T14:18:34;10.00;1.00
8152;DHT22;4117;53.622;9.958;2023-12-28T14:21:02;10.00;1.00
8152;DHT22;4117;53.622;9.958;2023-12-28T14:23:30;10.00;1.00
8152;DHT22;4117;53.622;9.958;2023-12-28T14:25:58;10.00;1.00
8152;DHT22;4117;53.622;9.958;2023-12-28T14:28:25;10.00;1.00
8152;DHT22;4117;53.622;9.958;2023-12-28T14:30:54;10.00;1.00
8152;DHT22;4117;53.622;9.958;2023-12-28T14:33:22;10.00;1.00
8152;DHT22;4117;53.622;9.958;2023-12-28T14:35:49;10.00;1.00
8152;DHT22;4117;53.622;9.958;2023-12-28T14:38:18;10.00;1.00
8152;DHT22;4117;53.622;9.958;2023-12-28T14:40:44;10.10;1.00
8152;DHT22;4117;53.622;9.958;2023-12-28T14:43:13;10.00;1.00
8152;DHT22;4117;53.622;9.958;2023-12-28T14:45:40;10.10;1.00
8152;DHT22;4117;53.622;9.958;2023-12-28T14:48:07;10.10;1.00
8152;DHT22;4117;53.622;9.958;2023-12-28T14:50:34;10.00;1.00
8152;DHT22;4117;53.622;9.958;2023-12-28T14:53:01;10.00;1.00
8152;DHT22;4117;53.622;9.958;2023-12-28T14:55:29;10.00;1.00
8152;DHT22;4117;53.622;9.958;2023-12-28T14:57:56;10.00;1.00
8152;DHT22;4117;53.622;9.958;2023-12-28T15:00:25;10.00;1.00
8152;DHT22;4117;53.622;9.958;2023-12-28T15:02:52;10.00;1.00
8152;DHT22;4117;53.622;9.958;2023-12-28T15:05:18;10.00;1.00
8152;DHT22;4117;53.622;9.958;2023-12-28T15:07:45;10.00;1.00
8152;DHT22;4117;53.622;9.958;2023-12-28T15:10:15;10.00;1.00
8152;DHT22;4117;53.622;9.958;2023-12-28T15:12:44;10.00;1.00
8152;DHT22;4117;53.622;9.958;2023-12-28T15:15:11;10.00;1.00
8152;DHT22;4117;53.622;9.958;2023-12-28T15:17:39;10.00;1.00
8152;DHT22;4117;53.622;9.958;2023-12-28T15:20:07;10.00;1.00
8152;DHT22;4117;53.622;9.958;2023-12-28T15:22:35;10.00;1.00
8152;DHT22;4117;53.622;9.958;2023-12-28T15:25:02;10.00;1.00
8152;DHT22;4117;53.622;9.958;2023-12-28T15:27:31;10.00;1.00
8152;DHT22;4117;53.622;9.958;2023-12-28T15:30:00;10.00;1.00
8152;DHT22;4117;53.622;9.958;2023-12-28T15:32:26;10.00;1.00
8152;DHT22;4117;53.622;9.958;2023-12-28T15:34:53;10.00;1.00
8152;DHT22;4117;53.622;9.958;2023-12-28T15:37:20;10.00;1.00
8152;DHT22;4117;53.622;9.958;2023-12-28T15:39:47;10.00;1.00
8152;DHT22;4117;53.622;9.958;2023-12-28T15:42:14;10.00;1.00
8152;DHT22;4117;53.622;9.958;2023-12-28T15:44:41;10.00;1.00
8152;DHT22;4117;53.622;9.958;2023-12-28T15:47:09;10.00;1.00
8152;DHT22;4117;53.622;9.958;2023-12-28T15:49:36;10.00;1.00
8152;DHT22;4117;53.622;9.958;2023-12-28T18:35:48;9.50;1.00
8152;DHT22;4117;53.622;9.958;2023-12-28T18:38:15;9.50;1.00
8152;DHT22;4117;53.622;9.958;2023-12-28T18:40:42;9.50;1.00
8152;DHT22;4117;53.622;9.958;2023-12-28T18:43:12;9.50;1.00
8152;DHT22;4117;53.622;9.958;2023-12-28T18:45:40;9.50;1.00
8152;DHT22;4117;53.622;9.958;2023-12-28T18:48:07;9.50;1.00
8152;DHT22;4117;53.622;9.958;2023-12-28T18:50:38;9.50;1.00
8152;DHT22;4117;53.622;9.958;2023-12-28T18:53:06;9.50;1.00
8152;DHT22;4117;53.622;9.958;2023-12-28T18:55:35;9.50;1.00
8152;DHT22;4117;53.622;9.958;2023-12-28T18:58:04;9.50;1.00
8152;DHT22;4117;53.622;9.958;2023-12-28T19:00:33;9.50;1.00
8152;DHT22;4117;53.622;9.958;2023-12-28T19:03:00;9.50;1.00
8152;DHT22;4117;53.622;9.958;2023-12-28T19:05:27;9.50;1.00
8152;DHT22;4117;53.622;9.958;2023-12-28T19:07:54;9.50;1.00
8152;DHT22;4117;53.622;9.958;2023-12-28T19:10:22;9.50;1.00
8152;DHT22;4117;53.622;9.958;2023-12-28T19:12:49;9.50;1.00
8152;DHT22;4117;53.622;9.958;2023-12-28T19:15:16;9.50;1.00